Philip, SD (57567)

6:34 PM MST on February 09, 2016 (GMT -0700)
Philip | | Change Station
CLOSE
Current Station
Airport
Location: Philip,
Elevation: 2208 ft
Nearby Weather Stations

Elev 2208 ft 44.05 °N, 101.60 °W | Updated 39 minutes ago

Overcast
Overcast
38 °F
Feels Like 38 °F
N
0
Wind Variable Wind from North

Today
High -- | Low -- °F
--% Chance of Precip.
Yesterday
High -- | Low -- °F
Precip. -- in
Pressure 30.17 in
Visibility 10.0 miles
Clouds Overcast 8500 ft
Dew Point 28 °F
Humidity 68%
Rainfall 0.00 in
Snow Depth Not available.
6:54 AM 5:07 PM
Waxing Crescent, 3% visible
METAR KPHP 100055Z AUTO 00000KT 10SM OVC085 03/M02 A3011 RMK AO2 SLP214 T00331022
Pressure 30.17 in
Visibility 10.0 miles
Clouds Overcast 8500 ft
Dew Point 28 °F
Humidity 68%
Rainfall 0.00 in
Snow Depth Not available.
6:54 AM 5:07 PM
Waxing Crescent, 3% visible
METAR KPHP 100055Z AUTO 00000KT 10SM OVC085 03/M02 A3011 RMK AO2 SLP214 T00331022

10-Day Weather Forecast

Almanac

Astronomy

Feb. 09, 2016 Rise Set
Actual Time
Civil Twilight
Nautical Twilight
Astronomical Twilight
Moon
Length of Visible Light
Length of Day
Tomorrow will be .
, % of the Moon is Illuminated

Today's Extremes

State Highs State Lows

Community

WunderPhotos

Upload Photos

1,891,760 photos uploaded!

WunderBlog® & News

Nearby

Air Quality

  Air Quality AQ Index Pollutant
Not available.

Snow Depth

Station Depth Elevation

Earthquake Activity

City Distance Mag. Time & Date
Minimum magnitude displayed is 2.5.

Coastal Water Temperatures

Place Temperature

Stations

Nearby Weather Stations

Station Location Temp. Windchill Dew Point Humidity Wind Precip. Elev Updated Type
                   

Watches & Warnings

There are currently no watches in effect.